CDT,Max TemperatureF,Mean TemperatureF,Min TemperatureF,Max Dew PointF,MeanDew PointF,Min DewpointF,Max Humidity, Mean Humidity, Min Humidity, Max Sea Level PressureIn, Mean Sea Level PressureIn, Min Sea Level PressureIn, Max VisibilityMiles, Mean VisibilityMiles, Min VisibilityMiles, Max Wind SpeedMPH, Mean Wind SpeedMPH, Max Gust SpeedMPH,PrecipitationIn, CloudCover, Events, WindDirDegrees
2012-10-1,77,66,57,53,48,37,72,54,32,29.88,29.84,29.79,10,10,8,9,2,,0.00,1,,13
2012-10-2,77,64,52,50,44,38,75,50,36,29.94,29.89,29.84,10,10,10,8,5,,0.00,0,,331
2012-10-3,78,64,51,49,46,41,88,57,28,29.97,29.92,29.88,10,10,6,12,3,20,0.00,0,,194
2012-10-4,68,58,50,51,44,38,74,61,52,30.25,30.16,29.97,10,10,10,14,7,22,0.00,4,Thunderstorm,334
2012-10-5,52,46,39,43,34,31,77,61,46,30.31,30.27,30.24,10,10,10,20,8,25,0.01,5,,13
2012-10-6,46,42,37,34,28,23,86,56,43,30.36,30.32,30.30,10,10,10,13,4,,0.00,3,,328
2012-10-7,57,44,34,30,27,23,79,52,28,30.35,30.25,30.15,10,10,10,7,3,,0.00,1,,227
2012-10-8,64,51,39,37,32,28,68,49,33,30.15,30.06,29.96,10,10,10,20,9,26,0.00,0,,201
2012-10-9,68,57,46,46,39,29,64,54,46,30.14,29.96,29.89,10,10,10,13,9,23,0.00,2,,247
2012-10-10,63,50,37,33,30,28,73,48,28,30.30,30.21,30.14,10,10,10,9,3,,0.00,0,,209
2012-10-11,71,58,46,56,45,32,75,59,50,30.18,30.10,30.02,10,10,9,12,6,,0.00,5,,158
2012-10-12,60,55,51,55,39,27,90,55,38,30.31,30.22,30.05,10,10,7,16,12,22,0.01,8,Rain,85
2012-10-13,70,64,59,66,62,56,94,88,78,30.04,29.85,29.64,10,6,1,17,8,24,0.84,7,Rain-Thunderstorm,176
2012-10-14,69,62,54,61,51,40,88,68,36,29.99,29.76,29.54,10,10,9,22,12,34,0.02,3,Rain-Thunderstorm,284
2012-10-15,75,60,48,50,47,42,90,62,37,30.01,29.93,29.81,10,9,6,7,2,,0.00,1,,146
2012-10-16,82,71,61,52,50,47,67,49,36,29.79,29.61,29.50,10,10,10,18,10,30,0.00,0,,203
2012-10-17,68,62,55,56,46,22,83,59,26,29.65,29.51,29.44,10,10,8,22,10,32,0.05,4,Rain,251
2012-10-18,59,54,48,40,29,24,71,41,29,29.68,29.65,29.61,10,10,10,24,13,36,0.00,5,Rain,275
2012-10-19,53,50,48,41,40,38,77,67,61,29.84,29.75,29.64,10,10,10,18,12,32,0.02,8,Rain,301
2012-10-20,71,57,43,44,41,38,89,62,31,29.86,29.80,29.72,10,10,10,9,2,17,0.00,0,,101
2012-10-21,77,62,50,66,57,44,83,71,62,29.81,29.77,29.74,10,10,10,12,6,,0.00,3,,134
2012-10-22,81,74,68,67,65,63,87,74,60,29.84,29.77,29.72,10,10,9,16,8,26,0.00,4,,191
2012-10-23,79,75,71,66,65,64,79,73,60,29.82,29.77,29.70,10,10,10,18,12,28,0.00,6,,187
2012-10-24,84,76,69,66,64,59,83,68,53,29.80,29.75,29.70,10,10,10,21,16,29,0.00,2,,191
2012-10-25,73,56,39,63,44,28,94,74,58,30.31,29.91,29.63,10,9,2,22,15,33,0.09,8,Rain-Thunderstorm,312
2012-10-26,48,41,36,28,27,26,67,58,44,30.49,30.41,30.31,10,10,10,17,10,22,0.00,3,,359
2012-10-27,46,38,30,29,27,25,82,64,46,30.45,30.37,30.28,10,10,10,8,4,,0.00,0,,39
2012-10-28,52,40,30,31,28,26,89,59,39,30.38,30.31,30.26,10,10,6,6,3,,0.00,0,,69
2012-10-29,57,48,42,31,28,23,65,48,36,30.33,30.24,30.14,10,10,10,10,5,16,0.09,3,,118
2012-10-30,57,45,35,32,30,27,76,56,34,30.14,30.06,30.00,10,10,8,13,5,,0.00,3,,59
2012-10-31,62,49,36,38,31,27,79,54,31,30.09,30.04,29.99,10,10,10,5,1,,0.00,0,,317